Terminal Aerodrome Forecast
Issued by NWS

Home | Current Version | Previous Version | Text Only | Print | Product List | Glossary On
Versions: 1 2 3 4 5 6 7 8 9 10 11 12 13 14 15 16 17
000
FTUS45 KBYZ 241720
TAFLVM
TAF
KLVM 241720Z 2418/2518 23019G28KT P6SM FEW070 BKN120
     FM242100 26018G26KT P6SM VCTS SCT070CB BKN100
     FM250300 25013KT P6SM VCSH BKN060
     FM250600 27011KT P6SM SCT070 BKN120
     FM251200 24011KT P6SM SCT060=

USA.gov is the U.S. government's official web portal to all federal, state and local government web resources and services.